Time;durP1;ratioP1;P1;durP2;ratioP2;P2;SDS_P1;SDS_P2;PMS_P1;PMS_P2;Temp;Humidity;BMP_temperature;BMP_pressure;BME280_temperature;BME280_humidity;BME280_pressure;Samples;Min_cycle;Max_cycle;Signal;HPM_P1;HPM_P2
2024/03/16 00:00:49;;;;;;;6.45;1.20;;;8.90;52.90;;;;;;6217648;28;20053;-79
2024/03/16 00:03:51;;;;;;;5.28;1.20;;;8.80;60.00;;;;;;6236423;28;20064;-79
2024/03/16 00:06:53;;;;;;;3.72;1.33;;;8.70;62.10;;;;;;6244943;28;20056;-79
2024/03/16 00:09:54;;;;;;;4.97;1.30;;;8.70;68.50;;;;;;6224098;28;20477;-78
2024/03/16 00:12:56;;;;;;;4.93;1.17;;;8.70;72.30;;;;;;6245471;28;20084;-80
2024/03/16 00:15:59;;;;;;;5.05;1.10;;;8.70;74.20;;;;;;6217599;28;20084;-78
2024/03/16 00:19:01;;;;;;;8.73;1.42;;;8.80;75.30;;;;;;6223767;28;20084;-78
2024/03/16 00:22:02;;;;;;;5.22;1.20;;;8.80;74.30;;;;;;6246017;28;20089;-77
2024/03/16 00:25:04;;;;;;;6.25;1.40;;;8.70;78.40;;;;;;6222598;28;20525;-78
2024/03/16 00:28:07;;;;;;;4.70;1.27;;;8.70;72.30;;;;;;6241447;28;20152;-79
2024/03/16 00:31:09;;;;;;;8.27;1.50;;;8.70;81.10;;;;;;6204227;28;20123;-79
2024/03/16 00:34:11;;;;;;;7.13;1.40;;;8.60;80.10;;;;;;6245838;28;20459;-79
2024/03/16 00:37:13;;;;;;;4.53;1.20;;;8.60;80.80;;;;;;6222321;28;20073;-80
2024/03/16 00:40:17;;;;;;;5.75;1.52;;;8.50;80.60;;;;;;6243849;28;20053;-80
2024/03/16 00:43:19;;;;;;;8.57;1.50;;;8.40;86.90;;;;;;6237899;28;20073;-80
2024/03/16 00:46:21;;;;;;;3.72;1.00;;;8.30;83.10;;;;;;6185874;28;20694;-81
2024/03/16 00:49:23;;;;;;;4.10;1.00;;;8.30;79.90;;;;;;6221734;28;20050;-79
2024/03/16 00:52:25;;;;;;;5.55;1.40;;;8.30;82.40;;;;;;6223706;28;20049;-78
2024/03/16 00:55:26;;;;;;;6.15;1.25;;;8.40;83.60;;;;;;6223089;28;20054;-78
2024/03/16 00:58:29;;;;;;;6.00;1.42;;;8.30;83.40;;;;;;6242843;28;20373;-81
2024/03/16 01:01:34;;;;;;;6.03;1.20;;;8.30;82.90;;;;;;6227502;28;20045;-79
2024/03/16 01:04:36;;;;;;;8.18;1.25;;;8.30;85.00;;;;;;6222870;28;20057;-79
2024/03/16 01:07:38;;;;;;;4.90;1.20;;;8.30;86.20;;;;;;6225109;28;20064;-79
2024/03/16 01:10:40;;;;;;;7.30;1.45;;;8.20;89.90;;;;;;6222036;28;20060;-79
2024/03/16 01:13:43;;;;;;;3.05;1.10;;;8.10;86.80;;;;;;6224215;28;20084;-79
2024/03/16 01:16:44;;;;;;;4.63;1.13;;;8.10;90.70;;;;;;6221380;28;20046;-78
2024/03/16 01:19:46;;;;;;;5.75;1.30;;;8.10;91.20;;;;;;6244717;28;20412;-78
2024/03/16 01:22:48;;;;;;;3.45;1.10;;;8.00;92.00;;;;;;6239275;28;20053;-79
2024/03/16 01:25:49;;;;;;;4.72;1.10;;;8.00;91.20;;;;;;6221259;28;20052;-78
2024/03/16 01:28:51;;;;;;;5.80;1.33;;;8.00;92.20;;;;;;6222133;28;20062;-81
2024/03/16 01:31:53;;;;;;;4.78;1.30;;;8.10;94.40;;;;;;6244426;28;20497;-78
2024/03/16 01:34:54;;;;;;;4.03;0.95;;;8.10;94.30;;;;;;6220630;28;20054;-78
2024/03/16 01:37:56;;;;;;;6.63;1.40;;;8.20;94.10;;;;;;6251930;28;20041;-78
2024/03/16 01:40:58;;;;;;;3.53;1.27;;;8.30;92.10;;;;;;6221334;28;20062;-78
2024/03/16 01:43:59;;;;;;;7.38;1.35;;;8.30;91.50;;;;;;6216596;28;20382;-78
2024/03/16 01:47:01;;;;;;;5.68;1.20;;;8.40;91.20;;;;;;6240838;28;20737;-79
2024/03/16 01:50:03;;;;;;;4.63;1.20;;;8.40;91.40;;;;;;6220092;28;20057;-78
2024/03/16 01:53:04;;;;;;;5.28;1.20;;;8.50;92.00;;;;;;6224517;28;20794;-78
2024/03/16 01:56:06;;;;;;;4.35;1.15;;;8.50;90.80;;;;;;6244930;28;20057;-78
2024/03/16 01:59:08;;;;;;;6.22;1.27;;;8.50;91.70;;;;;;6207138;28;20049;-78
2024/03/16 02:02:09;;;;;;;4.35;1.20;;;8.50;87.00;;;;;;6229611;28;20049;-78
2024/03/16 02:05:11;;;;;;;5.65;1.63;;;8.50;90.80;;;;;;6224559;28;20057;-78
2024/03/16 02:08:12;;;;;;;4.18;1.48;;;8.50;90.30;;;;;;6244140;28;20425;-78
2024/03/16 02:11:14;;;;;;;6.95;1.38;;;8.60;91.40;;;;;;6226687;28;20045;-78
2024/03/16 02:14:16;;;;;;;5.90;1.48;;;8.50;91.10;;;;;;6211895;28;20064;-79
2024/03/16 02:17:17;;;;;;;7.65;1.55;;;8.50;91.60;;;;;;6231732;28;20049;-80
2024/03/16 02:20:19;;;;;;;5.47;1.70;;;8.50;92.40;;;;;;6233062;28;20062;-79
2024/03/16 02:23:22;;;;;;;5.15;1.40;;;8.50;94.00;;;;;;6241433;28;20057;-78
2024/03/16 02:26:24;;;;;;;7.05;1.58;;;8.60;93.50;;;;;;6221511;28;20073;-78
2024/03/16 02:29:27;;;;;;;4.32;1.33;;;8.60;93.50;;;;;;6212036;28;20104;-78
2024/03/16 02:32:28;;;;;;;4.70;1.35;;;8.70;94.10;;;;;;6242768;28;20501;-78
2024/03/16 02:35:30;;;;;;;5.45;1.60;;;8.70;91.60;;;;;;6233583;28;20080;-78
2024/03/16 02:38:33;;;;;;;7.15;1.45;;;8.80;92.30;;;;;;6231841;28;20053;-78
2024/03/16 02:41:35;;;;;;;7.47;1.70;;;8.80;92.70;;;;;;6224962;28;20053;-79
2024/03/16 02:44:36;;;;;;;8.38;1.70;;;8.80;92.80;;;;;;6215416;28;20058;-79
2024/03/16 02:47:38;;;;;;;6.15;1.30;;;8.80;92.70;;;;;;6226289;28;20053;-80
2024/03/16 02:50:40;;;;;;;7.22;1.65;;;8.80;91.90;;;;;;6222142;28;20180;-80
2024/03/16 02:53:42;;;;;;;5.78;1.27;;;8.70;91.80;;;;;;6238165;28;20061;-79
2024/03/16 02:56:44;;;;;;;7.63;1.48;;;8.80;91.90;;;;;;6225039;28;20061;-79
2024/03/16 02:59:45;;;;;;;4.00;1.30;;;8.80;92.00;;;;;;6213182;28;20064;-79
2024/03/16 03:02:47;;;;;;;8.38;1.75;;;8.90;91.50;;;;;;6219105;28;20100;-79
2024/03/16 03:05:49;;;;;;;5.90;1.63;;;8.90;92.10;;;;;;6242991;28;20053;-79
2024/03/16 03:08:51;;;;;;;4.30;1.65;;;8.80;90.40;;;;;;6217304;28;20066;-79
2024/03/16 03:11:52;;;;;;;5.75;1.38;;;8.80;91.80;;;;;;6242594;28;20501;-79
2024/03/16 03:14:54;;;;;;;5.38;1.50;;;8.90;91.40;;;;;;6200192;28;20050;-79
2024/03/16 03:17:56;;;;;;;6.63;1.60;;;8.90;92.60;;;;;;6242486;28;20053;-79
2024/03/16 03:20:57;;;;;;;5.03;1.35;;;8.90;92.60;;;;;;6227110;28;20054;-79
2024/03/16 03:23:59;;;;;;;6.35;1.50;;;8.90;93.70;;;;;;6230119;28;20528;-79
2024/03/16 03:27:01;;;;;;;7.55;1.58;;;8.90;94.20;;;;;;6226019;28;20656;-79
2024/03/16 03:30:03;;;;;;;3.90;1.33;;;8.90;93.90;;;;;;6211331;28;20066;-79
2024/03/16 03:33:04;;;;;;;7.55;1.70;;;8.90;93.80;;;;;;6247489;28;20060;-79
2024/03/16 03:36:06;;;;;;;5.80;1.50;;;8.90;94.60;;;;;;6220033;28;20227;-79
2024/03/16 03:39:08;;;;;;;4.35;1.20;;;8.90;94.20;;;;;;6234574;28;20421;-77
2024/03/16 03:42:11;;;;;;;6.80;1.20;;;8.90;94.10;;;;;;6234046;28;20049;-79
2024/03/16 03:45:27;;;;;;;6.13;1.38;;;9.00;94.00;;;;;;6222603;28;20053;-77
2024/03/16 03:48:59;;;;;;;6.00;1.40;;;9.00;93.80;;;;;;6222712;28;20053;-77
2024/03/16 03:51:53;;;;;;;6.63;1.33;;;9.00;94.80;;;;;;6223315;28;20053;-81
2024/03/16 03:54:56;;;;;;;5.25;1.10;;;9.00;94.20;;;;;;6229654;28;20054;-78
2024/03/16 03:58:00;;;;;;;7.32;1.65;;;9.00;95.40;;;;;;6244397;28;20516;-78
2024/03/16 04:01:02;;;;;;;5.70;1.50;;;9.00;95.30;;;;;;6209294;28;20061;-78
2024/03/16 04:04:04;;;;;;;4.38;1.23;;;9.10;95.50;;;;;;6244676;28;20053;-78
2024/03/16 04:07:06;;;;;;;6.40;1.50;;;9.10;95.30;;;;;;6229038;28;20127;-78
2024/03/16 04:10:08;;;;;;;4.18;1.25;;;9.00;96.10;;;;;;6224280;28;20060;-78
2024/03/16 04:13:11;;;;;;;4.28;1.20;;;9.00;95.70;;;;;;6241868;28;20046;-79
2024/03/16 04:16:14;;;;;;;5.68;1.38;;;9.10;95.20;;;;;;6205255;28;20053;-78
2024/03/16 04:19:16;;;;;;;3.83;1.20;;;9.10;96.10;;;;;;6229871;28;20049;-79
2024/03/16 04:22:18;;;;;;;6.07;1.33;;;9.10;95.80;;;;;;6227840;28;20053;-78
2024/03/16 04:25:21;;;;;;;7.78;1.60;;;9.00;96.10;;;;;;6222462;28;20091;-79
2024/03/16 04:28:25;;;;;;;4.68;1.10;;;9.00;96.40;;;;;;6212172;28;20629;-77
2024/03/16 04:31:27;;;;;;;5.00;1.25;;;9.00;97.40;;;;;;6228809;28;20046;-79
2024/03/16 04:34:29;;;;;;;6.55;1.27;;;9.00;98.50;;;;;;6237617;28;20117;-79
2024/03/16 04:37:30;;;;;;;4.97;1.40;;;8.90;98.60;;;;;;6245815;28;20056;-79
2024/03/16 04:40:32;;;;;;;3.42;1.30;;;8.90;99.90;;;;;;6226474;28;20497;-80
2024/03/16 04:43:34;;;;;;;6.22;1.30;;;8.80;99.90;;;;;;6220303;28;20054;-79
2024/03/16 04:46:35;;;;;;;5.00;1.15;;;8.80;99.90;;;;;;6231267;23;20046;-82
2024/03/16 04:49:37;;;;;;;6.90;1.42;;;8.80;99.90;;;;;;6221131;28;20054;-82
2024/03/16 04:52:39;;;;;;;3.70;1.17;;;8.70;99.90;;;;;;6222429;28;20050;-82
2024/03/16 04:55:41;;;;;;;5.53;1.40;;;8.70;99.90;;;;;;6220982;28;20054;-82
2024/03/16 04:58:43;;;;;;;6.40;1.73;;;8.60;99.90;;;;;;6214799;28;20420;-83
2024/03/16 05:01:44;;;;;;;4.07;1.17;;;8.60;99.90;;;;;;6222254;28;20083;-82
2024/03/16 05:04:47;;;;;;;4.88;1.13;;;8.50;99.90;;;;;;6220447;28;20053;-83
2024/03/16 05:07:48;;;;;;;3.05;1.13;;;8.50;99.90;;;;;;6221817;28;20049;-82
2024/03/16 05:10:53;;;;;;;5.78;1.25;;;8.50;99.90;;;;;;6221578;28;20056;-82
2024/03/16 05:13:55;;;;;;;6.95;1.48;;;8.40;99.90;;;;;;6205806;28;20058;-82
2024/03/16 05:16:57;;;;;;;3.42;1.10;;;8.30;99.90;;;;;;6221147;28;20501;-82
2024/03/16 05:19:58;;;;;;;5.40;1.27;;;8.30;99.90;;;;;;6221572;28;20061;-82
2024/03/16 05:23:00;;;;;;;5.07;1.30;;;8.30;99.90;;;;;;6218375;28;20420;-82
2024/03/16 05:26:02;;;;;;;5.35;1.30;;;8.20;99.90;;;;;;6220211;28;20485;-82
2024/03/16 05:29:05;;;;;;;4.22;1.30;;;8.30;99.90;;;;;;6211147;28;20085;-82
2024/03/16 05:32:07;;;;;;;5.45;1.05;;;8.20;99.90;;;;;;6200997;28;20512;-83
2024/03/16 05:35:10;;;;;;;5.43;1.40;;;8.10;99.90;;;;;;6221547;28;20144;-82
2024/03/16 05:38:12;;;;;;;4.72;1.40;;;8.10;99.90;;;;;;6221185;28;20054;-82
2024/03/16 05:41:13;;;;;;;8.07;1.60;;;8.00;99.90;;;;;;6221275;28;20050;-83
2024/03/16 05:44:15;;;;;;;4.10;1.30;;;7.90;99.90;;;;;;6210496;28;20143;-82
2024/03/16 05:47:21;;;;;;;4.63;1.48;;;7.80;99.90;;;;;;6220568;28;20159;-83
2024/03/16 05:50:23;;;;;;;4.25;1.40;;;7.70;99.90;;;;;;6199948;28;20057;-83
2024/03/16 05:53:25;;;;;;;3.67;1.40;;;7.70;99.90;;;;;;6221092;28;20057;-83
2024/03/16 05:56:27;;;;;;;3.92;1.58;;;7.60;99.90;;;;;;6221136;28;20058;-83
2024/03/16 05:59:28;;;;;;;4.95;1.50;;;7.50;99.90;;;;;;6215495;28;20053;-82
2024/03/16 06:02:30;;;;;;;3.85;1.40;;;7.50;99.90;;;;;;6220452;28;20053;-82
2024/03/16 06:05:43;;;;;;;7.97;1.70;;;7.40;99.90;;;;;;6220077;28;20050;-82
2024/03/16 06:08:45;;;;;;;6.63;1.70;;;7.40;99.90;;;;;;6220668;28;20501;-82
2024/03/16 06:11:47;;;;;;;5.63;1.70;;;7.40;99.90;;;;;;6220284;28;20050;-82
2024/03/16 06:14:48;;;;;;;5.38;1.60;;;7.40;99.90;;;;;;6215302;28;20069;-82
2024/03/16 06:17:50;;;;;;;5.07;1.73;;;7.40;99.90;;;;;;6220746;28;20057;-82
2024/03/16 06:20:52;;;;;;;5.07;1.75;;;7.40;99.90;;;;;;6219267;28;20050;-82
2024/03/16 06:23:54;;;;;;;5.47;1.85;;;7.40;99.90;;;;;;6216990;28;20064;-82
2024/03/16 06:27:00;;;;;;;5.93;1.70;;;7.40;99.90;;;;;;6211723;28;20588;-82
2024/03/16 06:30:02;;;;;;;4.13;1.88;;;7.40;99.90;;;;;;6191046;28;20062;-81
2024/03/16 06:33:10;;;;;;;5.80;1.67;;;7.50;99.90;;;;;;6218477;28;20429;-83
2024/03/16 06:36:12;;;;;;;5.65;1.83;;;7.60;99.90;;;;;;6219320;28;20493;-82
2024/03/16 06:39:13;;;;;;;6.82;2.00;;;7.70;99.90;;;;;;6218426;28;20045;-82
2024/03/16 06:42:16;;;;;;;6.85;1.95;;;7.70;99.90;;;;;;6219530;28;20057;-82
2024/03/16 06:45:17;;;;;;;5.40;1.92;;;7.80;99.90;;;;;;6199859;28;20061;-82
2024/03/16 06:48:19;;;;;;;6.55;1.95;;;7.80;99.90;;;;;;6219352;28;20734;-82
2024/03/16 06:51:21;;;;;;;4.13;1.50;;;7.90;99.90;;;;;;6219433;28;20058;-82
2024/03/16 06:54:22;;;;;;;5.65;1.88;;;7.90;99.90;;;;;;6219744;28;20699;-82
2024/03/16 06:57:24;;;;;;;4.22;1.70;;;8.00;99.90;;;;;;6219439;28;20045;-82
2024/03/16 07:00:26;;;;;;;5.22;1.98;;;8.00;99.90;;;;;;6214034;28;20449;-82
2024/03/16 07:03:28;;;;;;;5.85;2.00;;;8.10;99.90;;;;;;6219488;28;20057;-83
2024/03/16 07:06:30;;;;;;;5.00;1.58;;;8.10;99.90;;;;;;6219138;28;20077;-82
2024/03/16 07:09:32;;;;;;;5.82;1.80;;;8.10;99.90;;;;;;6219512;28;20060;-82
2024/03/16 07:12:34;;;;;;;5.75;1.80;;;8.30;99.90;;;;;;6217786;28;20177;-82
2024/03/16 07:15:35;;;;;;;4.30;1.50;;;8.40;99.90;;;;;;6208741;28;20188;-83
2024/03/16 07:18:37;;;;;;;4.47;1.60;;;8.60;99.90;;;;;;6219851;28;20100;-82
2024/03/16 07:21:39;;;;;;;5.75;1.52;;;8.70;99.90;;;;;;6216996;28;20519;-82
2024/03/16 07:24:41;;;;;;;6.07;1.40;;;8.90;99.90;;;;;;6217168;28;20136;-82
2024/03/16 07:27:42;;;;;;;4.95;1.30;;;9.10;99.90;;;;;;6218860;28;20046;-82
2024/03/16 07:30:44;;;;;;;5.80;1.60;;;9.10;95.70;;;;;;6212326;28;20069;-83
2024/03/16 07:33:46;;;;;;;5.60;1.45;;;9.30;94.80;;;;;;6210728;28;20127;-83
2024/03/16 07:36:48;;;;;;;6.03;1.60;;;9.50;93.70;;;;;;6219396;28;20073;-82
2024/03/16 07:39:50;;;;;;;5.68;1.52;;;9.60;90.50;;;;;;6216545;28;20164;-83
2024/03/16 07:42:52;;;;;;;6.82;1.50;;;9.80;90.60;;;;;;6218427;28;20054;-85
2024/03/16 07:45:53;;;;;;;3.63;1.23;;;10.60;83.70;;;;;;6207939;28;20058;-84
2024/03/16 07:49:01;;;;;;;3.65;1.20;;;11.40;65.10;;;;;;6219787;28;20103;-85
2024/03/16 07:52:03;;;;;;;4.60;1.20;;;11.90;76.10;;;;;;6204458;28;20052;-83
2024/03/16 07:55:06;;;;;;;2.85;1.30;;;12.00;21.40;;;;;;6219779;28;20063;-84
2024/03/16 07:58:08;;;;;;;4.30;0.90;;;12.30;26.90;;;;;;6216956;28;20042;-80
2024/03/16 08:01:12;;;;;;;3.95;1.15;;;12.60;1.00;;;;;;6214562;28;20046;-84
2024/03/16 08:04:14;;;;;;;3.22;1.20;;;12.50;6.00;;;;;;6209420;28;20050;-86
2024/03/16 08:07:16;;;;;;;2.47;1.00;;;13.50;3.50;;;;;;6218043;28;20053;-87
2024/03/16 08:10:18;;;;;;;6.28;1.30;;;13.90;1.00;;;;;;6220658;28;20056;-85
2024/03/16 08:13:20;;;;;;;5.30;1.10;;;14.40;1.00;;;;;;6217971;28;20053;-84
2024/03/16 08:16:22;;;;;;;3.20;1.08;;;14.70;1.00;;;;;;6226590;28;20060;-86
2024/03/16 08:19:24;;;;;;;5.32;1.00;;;15.00;1.00;;;;;;6227409;28;20521;-87
2024/03/16 08:22:26;;;;;;;3.25;1.05;;;15.30;1.00;;;;;;6215576;28;20080;-85
2024/03/16 08:25:32;;;;;;;4.78;1.50;;;15.40;1.00;;;;;;6222069;28;20066;-85
2024/03/16 08:28:34;;;;;;;5.10;1.27;;;15.10;1.00;;;;;;6200280;28;20046;-84
2024/03/16 08:31:36;;;;;;;4.30;1.50;;;15.20;1.00;;;;;;6201208;28;20050;-88
2024/03/16 08:34:38;;;;;;;4.40;1.40;;;15.70;1.00;;;;;;6222953;28;20502;-87
2024/03/16 08:37:40;;;;;;;4.80;1.50;;;16.20;1.00;;;;;;6225000;28;20045;-89
2024/03/16 08:40:42;;;;;;;6.15;1.50;;;16.60;1.00;;;;;;6200191;28;20132;-85
2024/03/16 08:43:43;;;;;;;5.25;1.65;;;17.00;1.00;;;;;;6201869;28;20062;-84
2024/03/16 08:46:45;;;;;;;6.20;1.50;;;16.40;1.00;;;;;;6221598;28;20065;-85
2024/03/16 08:49:47;;;;;;;4.63;2.00;;;16.00;1.00;;;;;;6198333;28;20057;-86
2024/03/16 08:52:49;;;;;;;5.95;1.73;;;15.30;1.00;;;;;;6222057;28;20239;-86
2024/03/16 08:55:51;;;;;;;4.80;1.80;;;14.60;1.00;;;;;;6198023;28;20061;-87
2024/03/16 08:58:53;;;;;;;6.32;1.70;;;14.40;1.00;;;;;;6196209;28;20050;-87
2024/03/16 09:01:55;;;;;;;6.60;2.25;;;14.40;1.00;;;;;;6222216;28;20050;-86
2024/03/16 09:04:57;;;;;;;4.20;1.90;;;14.10;1.00;;;;;;6196983;28;20112;-85
2024/03/16 09:07:58;;;;;;;6.07;2.35;;;14.00;1.00;;;;;;6221404;28;20057;-85
2024/03/16 09:11:00;;;;;;;5.30;2.20;;;14.00;1.00;;;;;;6196853;28;20394;-84
2024/03/16 09:14:05;;;;;;;6.15;2.53;;;13.70;1.00;;;;;;6200134;28;20088;-84
2024/03/16 09:17:07;;;;;;;4.45;2.20;;;14.00;1.00;;;;;;6221186;28;20494;-84
2024/03/16 09:20:10;;;;;;;6.78;2.40;;;14.80;1.00;;;;;;6220819;28;20100;-85
2024/03/16 09:23:13;;;;;;;4.90;2.33;;;16.10;1.00;;;;;;6197784;28;20061;-84
2024/03/16 09:26:15;;;;;;;5.13;2.35;;;16.60;1.00;;;;;;6221772;28;20504;-84
2024/03/16 09:29:17;;;;;;;5.97;2.53;;;16.30;1.00;;;;;;6205506;28;20054;-85
2024/03/16 09:32:18;;;;;;;7.57;2.53;;;16.50;1.00;;;;;;6196625;28;20065;-85
2024/03/16 09:35:20;;;;;;;4.07;2.15;;;16.90;1.00;;;;;;6220866;28;20530;-85
2024/03/16 09:38:23;;;;;;;5.00;2.05;;;17.70;1.00;;;;;;6197616;28;20054;-85
2024/03/16 09:41:24;;;;;;;5.40;2.20;;;18.20;1.00;;;;;;6219295;28;20053;-85
2024/03/16 09:44:26;;;;;;;3.90;2.05;;;17.70;1.00;;;;;;6197655;28;20073;-84
2024/03/16 09:47:27;;;;;;;6.00;2.47;;;17.20;1.00;;;;;;6195955;28;20442;-88
2024/03/16 09:50:28;;;;;;;5.00;2.22;;;17.10;1.00;;;;;;6221033;28;20248;-85
2024/03/16 09:53:31;;;;;;;4.75;2.13;;;17.70;1.00;;;;;;6226541;28;20128;-90
2024/03/16 09:56:32;;;;;;;7.05;2.70;;;18.50;1.00;;;;;;6227530;28;20061;-90
2024/03/16 09:59:33;;;;;;;7.15;2.50;;;18.50;1.00;;;;;;6218035;28;20685;-92
2024/03/16 10:02:36;;;;;;;6.40;2.35;;;19.60;1.00;;;;;;6233990;28;20054;-90
2024/03/16 10:05:36;;;;;;;4.53;1.98;;;19.30;1.00;;;;;;6187681;28;20214;-88
2024/03/16 10:08:37;;;;;;;4.90;2.22;;;20.00;1.00;;;;;;6234233;28;20109;-89
2024/03/16 10:11:39;;;;;;;4.85;1.90;;;19.90;1.00;;;;;;6224856;28;20065;-87
2024/03/16 10:14:40;;;;;;;6.18;2.20;;;18.60;1.00;;;;;;6222710;28;20060;-90
2024/03/16 10:17:40;;;;;;;4.32;1.75;;;17.10;1.00;;;;;;6183209;28;20054;-88
2024/03/16 10:20:41;;;;;;;2.88;1.80;;;16.70;1.00;;;;;;6222994;28;20089;-89
2024/03/16 10:23:42;;;;;;;6.07;2.00;;;15.50;1.00;;;;;;6197848;28;20054;-87
2024/03/16 10:26:43;;;;;;;4.90;2.40;;;15.00;1.00;;;;;;6219711;28;20053;-87
2024/03/16 10:29:43;;;;;;;5.30;2.22;;;14.50;1.00;;;;;;6196822;28;20050;-86
2024/03/16 10:32:46;;;;;;;6.72;2.20;;;14.30;1.00;;;;;;6210403;28;20485;-90
2024/03/16 10:35:47;;;;;;;6.43;2.35;;;15.00;1.00;;;;;;6204137;28;20072;-91
2024/03/16 10:38:50;;;;;;;7.68;2.10;;;15.10;1.00;;;;;;6206808;28;20053;-88
2024/03/16 10:41:51;;;;;;;7.38;2.10;;;14.80;1.00;;;;;;6184423;28;20055;-85
2024/03/16 10:44:52;;;;;;;5.28;1.92;;;15.20;1.00;;;;;;6212394;28;20069;-87
2024/03/16 10:47:53;;;;;;;8.27;1.70;;;14.90;1.00;;;;;;6215443;28;20103;-83
2024/03/16 10:50:54;;;;;;;3.40;1.55;;;15.80;1.00;;;;;;6183840;28;20558;-89
2024/03/16 10:53:55;;;;;;;4.93;1.35;;;16.80;1.00;;;;;;6221055;28;20054;-86
2024/03/16 10:56:55;;;;;;;2.67;1.20;;;17.70;1.00;;;;;;6196926;28;20494;-82
2024/03/16 10:59:56;;;;;;;6.45;1.70;;;17.90;1.00;;;;;;6217835;28;20062;-83
2024/03/16 11:03:00;;;;;;;4.03;1.48;;;18.10;1.00;;;;;;6186536;28;20388;-85
2024/03/16 11:06:01;;;;;;;4.45;1.73;;;17.30;1.00;;;;;;6220253;28;20500;-86
2024/03/16 11:09:07;;;;;;;3.85;1.50;;;16.50;1.00;;;;;;6196109;28;20060;-85
2024/03/16 11:12:07;;;;;;;5.07;1.70;;;15.70;1.00;;;;;;6219723;28;20776;-84
2024/03/16 11:15:09;;;;;;;5.60;1.55;;;15.50;1.00;;;;;;6211433;28;20062;-90
2024/03/16 11:18:09;;;;;;;4.07;1.75;;;15.40;1.00;;;;;;6222056;28;20521;-87
2024/03/16 11:21:14;;;;;;;3.13;1.38;;;15.40;1.00;;;;;;6181772;28;20140;-89
2024/03/16 11:24:15;;;;;;;3.20;1.45;;;15.40;1.00;;;;;;6221204;28;20563;-89
2024/03/16 11:27:19;;;;;;;4.30;1.35;;;15.80;1.00;;;;;;6197312;28;20054;-90
2024/03/16 11:30:20;;;;;;;4.82;1.27;;;17.40;1.00;;;;;;6212302;28;20050;-90
2024/03/16 11:33:21;;;;;;;3.25;1.10;;;18.30;1.00;;;;;;6223045;28;20432;-90
2024/03/16 11:36:23;;;;;;;3.17;0.93;;;19.70;1.00;;;;;;6199759;28;20061;-89
2024/03/16 11:39:25;;;;;;;2.80;1.10;;;20.30;1.00;;;;;;6206139;28;20049;-91
2024/03/16 11:42:26;;;;;;;2.80;1.00;;;19.60;1.00;;;;;;6222779;28;20064;-87
2024/03/16 11:45:26;;;;;;;4.82;1.15;;;18.50;1.00;;;;;;6219323;28;20433;-87
2024/03/16 11:48:27;;;;;;;2.58;0.90;;;17.40;1.00;;;;;;6228483;28;20496;-89
2024/03/16 11:51:28;;;;;;;4.32;0.88;;;17.20;1.00;;;;;;6213373;28;20103;-87
2024/03/16 11:54:30;;;;;;;4.00;1.00;;;17.40;1.00;;;;;;6239856;28;20063;-88
2024/03/16 11:57:30;;;;;;;2.13;0.90;;;18.60;1.00;;;;;;6246289;28;20523;-91
2024/03/16 12:00:31;;;;;;;2.42;1.15;;;19.00;1.00;;;;;;6216966;28;20342;-88
2024/03/16 12:03:32;;;;;;;4.18;0.98;;;19.00;1.00;;;;;;6246702;28;20141;-88
2024/03/16 12:06:33;;;;;;;2.90;1.00;;;19.90;1.00;;;;;;6231233;28;20057;-90
2024/03/16 12:09:34;;;;;;;2.03;0.98;;;20.50;1.00;;;;;;6248592;28;20050;-88
2024/03/16 12:12:39;;;;;;;2.38;1.10;;;20.50;1.00;;;;;;6230362;28;20060;-90
2024/03/16 12:15:40;;;;;;;2.22;0.90;;;20.90;1.00;;;;;;6201660;28;20065;-86
2024/03/16 12:18:41;;;;;;;3.30;0.98;;;21.10;1.00;;;;;;6222229;28;20054;-84
2024/03/16 12:21:42;;;;;;;8.32;1.38;;;20.00;1.00;;;;;;6224495;28;20054;-85
2024/03/16 12:24:43;;;;;;;3.55;1.20;;;19.30;1.00;;;;;;6224533;28;20063;-86
2024/03/16 12:27:44;;;;;;;5.30;1.00;;;18.80;1.00;;;;;;6208982;28;20053;-85
2024/03/16 12:30:44;;;;;;;1.77;0.73;;;18.50;1.00;;;;;;6215285;28;20061;-86
2024/03/16 12:33:45;;;;;;;2.50;0.90;;;18.10;1.00;;;;;;6200533;28;20572;-87
2024/03/16 12:36:47;;;;;;;3.05;0.90;;;17.60;1.00;;;;;;6200450;28;20069;-88
2024/03/16 12:39:48;;;;;;;3.30;0.93;;;17.20;1.00;;;;;;6223156;28;20057;-86
2024/03/16 12:42:50;;;;;;;2.67;0.85;;;17.20;1.00;;;;;;6205473;28;20073;-87
2024/03/16 12:45:51;;;;;;;2.20;0.90;;;17.10;1.00;;;;;;6201672;28;20078;-85
2024/03/16 12:48:52;;;;;;;2.47;0.90;;;16.90;1.00;;;;;;6225971;28;20425;-85
2024/03/16 12:51:53;;;;;;;3.88;0.90;;;17.30;1.00;;;;;;6222605;28;20054;-86
2024/03/16 12:54:53;;;;;;;5.03;1.00;;;17.10;1.00;;;;;;6200700;28;20054;-89
2024/03/16 12:57:54;;;;;;;3.47;0.85;;;17.30;1.00;;;;;;6220646;28;20057;-86
2024/03/16 13:00:55;;;;;;;4.13;0.85;;;17.40;1.00;;;;;;6212766;28;20056;-83
2024/03/16 13:03:55;;;;;;;5.28;1.20;;;17.40;1.00;;;;;;6222290;28;20131;-87
2024/03/16 13:06:56;;;;;;;4.78;1.05;;;17.40;1.00;;;;;;6209552;28;20112;-86
2024/03/16 13:09:57;;;;;;;2.35;0.80;;;17.70;1.00;;;;;;6225695;28;20543;-85
2024/03/16 13:12:58;;;;;;;2.75;0.80;;;17.50;1.00;;;;;;6218094;28;20057;-84
2024/03/16 13:15:59;;;;;;;1.67;0.90;;;17.20;1.00;;;;;;6217280;28;20061;-89
2024/03/16 13:19:00;;;;;;;2.28;0.90;;;17.10;1.00;;;;;;6213703;28;20060;-84
2024/03/16 13:22:01;;;;;;;2.88;0.90;;;17.70;1.00;;;;;;6220605;28;20054;-83
2024/03/16 13:25:03;;;;;;;3.85;0.90;;;17.80;1.00;;;;;;6219830;28;20069;-84
2024/03/16 13:28:04;;;;;;;3.25;0.98;;;17.70;1.00;;;;;;6213864;28;20054;-81
2024/03/16 13:31:05;;;;;;;2.42;0.90;;;17.30;1.00;;;;;;6207204;28;20140;-84
2024/03/16 13:34:08;;;;;;;3.05;0.90;;;17.40;1.00;;;;;;6206884;28;20073;-84
2024/03/16 13:37:08;;;;;;;2.03;0.90;;;17.00;1.00;;;;;;6220894;28;20538;-86
2024/03/16 13:40:09;;;;;;;3.65;1.00;;;16.70;1.00;;;;;;6222152;28;20136;-86
2024/03/16 13:43:11;;;;;;;3.60;0.85;;;16.60;1.00;;;;;;6199657;28;20485;-84
2024/03/16 13:46:18;;;;;;;2.42;0.90;;;16.50;1.00;;;;;;6210339;28;20061;-84
2024/03/16 13:49:19;;;;;;;3.67;1.00;;;16.30;1.00;;;;;;6217354;28;20061;-83
2024/03/16 13:52:20;;;;;;;3.38;1.00;;;16.00;1.00;;;;;;6219137;28;20061;-83
2024/03/16 13:55:22;;;;;;;2.42;0.90;;;15.90;1.00;;;;;;6203458;28;20061;-84
2024/03/16 13:58:23;;;;;;;4.60;1.08;;;15.60;1.00;;;;;;6202581;28;20058;-85
2024/03/16 14:01:30;;;;;;;2.92;1.00;;;15.90;1.00;;;;;;6220893;28;20096;-87
2024/03/16 14:04:31;;;;;;;6.60;1.13;;;16.10;1.00;;;;;;6220347;28;20054;-85
2024/03/16 14:07:32;;;;;;;5.03;0.98;;;16.30;1.00;;;;;;6219061;28;20056;-83
2024/03/16 14:10:33;;;;;;;2.47;0.93;;;16.20;1.00;;;;;;6219641;28;20144;-87
2024/03/16 14:13:34;;;;;;;3.22;1.13;;;15.90;1.00;;;;;;6207117;28;20559;-89
2024/03/16 14:16:36;;;;;;;4.43;1.50;;;15.70;1.00;;;;;;6219141;28;20057;-84
2024/03/16 14:19:37;;;;;;;13.40;1.75;;;15.30;1.00;;;;;;6218990;28;20060;-83
2024/03/16 14:22:38;;;;;;;3.97;1.45;;;15.20;1.00;;;;;;6219086;28;20049;-81
2024/03/16 14:25:38;;;;;;;4.05;1.08;;;15.00;1.00;;;;;;6218359;28;20053;-83
2024/03/16 14:28:39;;;;;;;3.22;0.90;;;15.10;1.00;;;;;;6208979;28;20508;-84
2024/03/16 14:31:40;;;;;;;2.70;0.93;;;15.00;1.00;;;;;;6218359;28;20062;-84
2024/03/16 14:34:41;;;;;;;4.20;1.15;;;15.10;1.00;;;;;;6218656;28;20064;-82
2024/03/16 14:37:42;;;;;;;4.32;1.00;;;15.30;1.00;;;;;;6218022;28;20060;-82
2024/03/16 14:40:43;;;;;;;4.30;1.10;;;15.20;1.00;;;;;;6218071;28;20054;-82
2024/03/16 14:43:43;;;;;;;2.15;0.80;;;15.10;1.00;;;;;;6193969;28;20596;-82
2024/03/16 14:46:44;;;;;;;3.03;0.93;;;15.00;1.00;;;;;;6200184;28;20111;-81
2024/03/16 14:49:45;;;;;;;3.35;1.00;;;14.70;1.00;;;;;;6200664;28;20192;-82
2024/03/16 14:52:45;;;;;;;4.15;1.00;;;14.70;1.00;;;;;;6190828;28;20058;-83
2024/03/16 14:55:46;;;;;;;5.07;0.90;;;14.60;1.00;;;;;;6205064;28;20058;-82
2024/03/16 14:58:47;;;;;;;3.90;1.00;;;14.50;1.00;;;;;;6194480;28;20468;-84
2024/03/16 15:01:47;;;;;;;3.08;0.90;;;14.70;1.00;;;;;;6220125;28;20073;-84
2024/03/16 15:04:48;;;;;;;3.20;0.88;;;14.70;1.00;;;;;;6218897;28;20062;-86
2024/03/16 15:07:49;;;;;;;2.08;0.80;;;14.50;1.00;;;;;;6206247;28;21123;-85
2024/03/16 15:10:50;;;;;;;2.75;0.70;;;14.40;1.00;;;;;;6218086;28;20064;-86
2024/03/16 15:13:52;;;;;;;3.20;0.85;;;14.40;1.00;;;;;;6211859;28;20057;-85
2024/03/16 15:16:53;;;;;;;3.20;0.75;;;14.50;1.00;;;;;;6217471;28;20506;-82
2024/03/16 15:19:54;;;;;;;4.78;1.10;;;14.40;1.00;;;;;;6222561;28;20060;-87
2024/03/16 15:22:54;;;;;;;2.38;0.80;;;14.40;1.00;;;;;;6223313;28;20500;-83
2024/03/16 15:26:04;;;;;;;2.45;0.85;;;14.10;1.00;;;;;;6223493;28;20065;-83
2024/03/16 15:29:05;;;;;;;3.85;1.00;;;14.00;1.00;;;;;;6195545;28;20413;-83
2024/03/16 15:32:05;;;;;;;3.55;1.00;;;13.90;1.00;;;;;;6222323;28;20073;-83
2024/03/16 15:35:09;;;;;;;3.28;0.90;;;13.60;1.00;;;;;;6207207;28;20060;-86
2024/03/16 15:38:10;;;;;;;3.47;0.98;;;13.70;1.00;;;;;;6205579;28;20053;-84
2024/03/16 15:41:11;;;;;;;3.03;0.98;;;13.60;1.00;;;;;;6205811;28;20068;-86
2024/03/16 15:44:12;;;;;;;3.30;1.10;;;13.50;1.00;;;;;;6197575;28;20054;-83
2024/03/16 15:47:13;;;;;;;4.78;1.38;;;13.50;1.00;;;;;;6206676;28;20061;-83
2024/03/16 15:50:16;;;;;;;5.18;1.30;;;13.50;1.00;;;;;;6222534;28;20457;-84
2024/03/16 15:53:17;;;;;;;3.95;1.10;;;13.50;1.00;;;;;;6206533;28;20052;-83
2024/03/16 15:56:18;;;;;;;4.50;1.27;;;13.50;1.00;;;;;;6205822;28;20085;-83
2024/03/16 15:59:18;;;;;;;2.70;1.00;;;13.50;1.00;;;;;;6182251;28;20050;-87